createdAt,value
2019-01-18T00:02:16.653Z,9.58
2019-01-18T00:04:44.009Z,14.95
2019-01-18T00:07:11.381Z,16.23
2019-01-18T00:09:38.707Z,10.80
2019-01-18T00:12:05.950Z,12.53
2019-01-18T00:14:33.299Z,13.60
2019-01-18T00:17:00.866Z,8.75
2019-01-18T00:19:28.207Z,12.37
2019-01-18T00:21:55.445Z,10.05
2019-01-18T00:24:22.849Z,12.00
2019-01-18T00:26:50.087Z,12.15
2019-01-18T00:29:17.445Z,12.15
2019-01-18T00:31:44.657Z,15.55
2019-01-18T00:34:12.029Z,15.32
2019-01-18T00:36:39.339Z,10.95
2019-01-18T00:39:07.611Z,12.82
2019-01-18T00:41:34.937Z,12.70
2019-01-18T00:44:02.349Z,13.40
2019-01-18T00:46:29.703Z,10.88
2019-01-18T00:48:57.089Z,14.65
2019-01-18T00:51:24.450Z,16.60
2019-01-18T00:53:51.774Z,12.90
2019-01-18T00:56:19.118Z,16.80
2019-01-18T00:58:46.497Z,15.80
2019-01-18T01:01:13.816Z,14.98
2019-01-18T01:03:41.145Z,15.03
2019-01-18T01:06:08.485Z,18.85
2019-01-18T01:08:35.698Z,17.07
2019-01-18T01:11:03.043Z,18.60
2019-01-18T01:13:30.292Z,16.15
2019-01-18T01:15:57.605Z,19.65
2019-01-18T01:18:24.986Z,19.60
2019-01-18T01:20:52.326Z,20.90
2019-01-18T01:23:19.670Z,18.95
2019-01-18T01:25:46.995Z,19.23
2019-01-18T01:28:14.404Z,21.33
2019-01-18T01:30:42.330Z,18.60
2019-01-18T01:33:09.692Z,22.27
2019-01-18T01:35:36.929Z,21.77
2019-01-18T01:38:04.444Z,18.98
2019-01-18T01:40:31.656Z,19.57
2019-01-18T01:42:58.914Z,23.22
2019-01-18T01:45:26.222Z,26.87
2019-01-18T01:47:53.580Z,25.30
2019-01-18T01:50:22.857Z,24.45
2019-01-18T01:52:50.463Z,30.02
2019-01-18T01:55:18.085Z,26.85
2019-01-18T01:57:45.390Z,28.42
2019-01-18T02:00:15.249Z,30.27
2019-01-18T02:02:42.440Z,31.60
2019-01-18T02:05:09.856Z,28.80
2019-01-18T02:07:37.098Z,32.13
2019-01-18T02:10:05.496Z,31.73
2019-01-18T02:12:32.874Z,31.30
2019-01-18T02:15:00.296Z,30.35
2019-01-18T02:17:27.622Z,37.28
2019-01-18T02:19:54.963Z,27.73
2019-01-18T02:22:22.392Z,35.50
2019-01-18T02:24:49.750Z,32.25
2019-01-18T02:27:17.083Z,26.55
2019-01-18T02:29:44.343Z,29.72
2019-01-18T02:32:11.640Z,29.35
2019-01-18T02:34:39.048Z,35.78
2019-01-18T02:37:06.535Z,33.45
2019-01-18T02:39:33.961Z,32.28
2019-01-18T02:42:01.282Z,32.83
2019-01-18T02:44:28.524Z,37.70
2019-01-18T02:46:55.768Z,32.78
2019-01-18T02:49:23.146Z,32.63
2019-01-18T02:51:50.504Z,28.70
2019-01-18T02:54:17.894Z,30.65
2019-01-18T02:56:45.240Z,29.42
2019-01-18T02:59:12.474Z,30.90
2019-01-18T03:01:39.849Z,33.67
2019-01-18T03:04:07.198Z,33.28
2019-01-18T03:06:34.614Z,35.45
2019-01-18T03:09:04.812Z,33.53
2019-01-18T03:11:32.160Z,32.85
2019-01-18T03:13:59.387Z,34.65
2019-01-18T03:16:26.632Z,26.52
2019-01-18T03:18:53.936Z,34.55
2019-01-18T03:21:21.245Z,33.05
2019-01-18T03:23:48.600Z,30.17
2019-01-18T03:26:15.982Z,35.95
2019-01-18T03:28:43.483Z,40.08
2019-01-18T03:31:10.827Z,31.87
2019-01-18T03:33:38.178Z,30.23
2019-01-18T03:36:05.421Z,34.03
2019-01-18T03:38:32.753Z,28.60
2019-01-18T03:41:00.067Z,38.73
2019-01-18T03:43:27.429Z,28.57
2019-01-18T03:45:54.762Z,28.23
2019-01-18T03:48:22.393Z,27.93
2019-01-18T03:50:50.034Z,30.72
2019-01-18T03:53:17.298Z,28.30
2019-01-18T03:55:44.670Z,29.07
2019-01-18T03:58:12.035Z,26.30
2019-01-18T04:00:39.466Z,27.15
2019-01-18T04:03:06.786Z,29.87
2019-01-18T04:05:34.109Z,25.15
2019-01-18T04:08:01.363Z,27.67
2019-01-18T04:10:28.599Z,23.02
2019-01-18T04:12:55.906Z,27.67
2019-01-18T04:15:23.713Z,22.17
2019-01-18T04:17:51.122Z,29.82
2019-01-18T04:20:19.538Z,26.30
2019-01-18T04:22:46.939Z,24.87
2019-01-18T04:25:22.617Z,26.48
2019-01-18T04:27:49.843Z,23.67
2019-01-18T04:30:18.541Z,21.97
2019-01-18T04:32:45.924Z,23.35
2019-01-18T04:35:13.457Z,24.60
2019-01-18T04:37:40.811Z,23.65
2019-01-18T04:40:16.105Z,24.77
2019-01-18T04:42:43.439Z,22.77
2019-01-18T04:45:10.809Z,23.32
2019-01-18T04:47:38.227Z,22.82
2019-01-18T04:50:07.823Z,26.35
2019-01-18T04:52:35.153Z,27.67
2019-01-18T04:55:02.727Z,23.40
2019-01-18T04:57:30.177Z,23.65
2019-01-18T04:59:57.554Z,23.62
2019-01-18T05:02:24.888Z,21.97
2019-01-18T05:04:52.218Z,26.33
2019-01-18T05:07:19.560Z,24.57
2019-01-18T05:09:46.890Z,27.55
2019-01-18T05:12:14.258Z,23.75
2019-01-18T05:14:41.639Z,27.85
2019-01-18T05:17:09.045Z,27.80
2019-01-18T05:19:36.250Z,26.55
2019-01-18T05:22:03.507Z,29.85
2019-01-18T05:24:30.735Z,31.68
2019-01-18T05:26:58.087Z,26.95
2019-01-18T05:29:25.351Z,24.10
2019-01-18T05:31:52.949Z,25.60
2019-01-18T05:34:20.413Z,29.85
2019-01-18T05:36:47.802Z,28.60
2019-01-18T05:39:15.316Z,28.17
2019-01-18T05:41:42.673Z,25.00
2019-01-18T05:44:10.001Z,34.60
2019-01-18T05:46:37.314Z,31.42
2019-01-18T05:49:07.254Z,31.40
2019-01-18T05:51:34.605Z,29.15
2019-01-18T05:54:01.939Z,27.40
2019-01-18T05:56:29.160Z,28.25
2019-01-18T05:58:56.522Z,28.98
2019-01-18T06:01:23.824Z,28.42
2019-01-18T06:03:51.286Z,35.35
2019-01-18T06:06:18.613Z,30.68
2019-01-18T06:08:45.956Z,31.10
2019-01-18T06:11:13.303Z,32.28
2019-01-18T06:13:40.659Z,26.55
2019-01-18T06:16:08.029Z,27.77
2019-01-18T06:18:35.357Z,30.17
2019-01-18T06:21:02.678Z,31.33
2019-01-18T06:23:29.912Z,33.80
2019-01-18T06:25:57.283Z,26.17
2019-01-18T06:28:24.509Z,31.60
2019-01-18T06:30:51.895Z,26.87
2019-01-18T06:33:19.225Z,26.27
2019-01-18T06:35:46.561Z,29.07
2019-01-18T06:38:13.893Z,29.45
2019-01-18T06:40:41.966Z,28.32
2019-01-18T06:43:09.311Z,33.05
2019-01-18T06:45:36.579Z,31.68
2019-01-18T06:48:04.267Z,30.37
2019-01-18T06:50:31.633Z,28.77
2019-01-18T06:52:58.958Z,36.65
2019-01-18T06:55:26.367Z,33.78
2019-01-18T06:57:53.727Z,34.10
2019-01-18T07:00:26.461Z,33.70
2019-01-18T07:02:53.801Z,31.50
2019-01-18T07:05:21.140Z,31.90
2019-01-18T07:07:48.358Z,31.75
2019-01-18T07:10:20.705Z,35.75
2019-01-18T07:12:45.885Z,29.75
2019-01-18T07:15:13.345Z,32.42
2019-01-18T07:17:40.589Z,30.45
2019-01-18T07:20:10.237Z,37.60
2019-01-18T07:22:37.438Z,34.40
2019-01-18T07:25:06.771Z,35.58
2019-01-18T07:27:34.086Z,35.23
2019-01-18T07:30:01.352Z,35.83
2019-01-18T07:32:28.685Z,39.35
2019-01-18T07:34:56.035Z,39.00
2019-01-18T07:37:23.386Z,43.13
2019-01-18T07:39:52.575Z,40.67
2019-01-18T07:42:19.965Z,42.48
2019-01-18T07:44:47.297Z,43.45
2019-01-18T07:47:14.519Z,46.50
2019-01-18T07:49:41.843Z,40.33
2019-01-18T07:52:09.164Z,51.77
2019-01-18T07:54:36.373Z,44.90
2019-01-18T07:57:03.633Z,50.58
2019-01-18T07:59:30.979Z,46.53
2019-01-18T08:01:58.299Z,47.45
2019-01-18T08:04:25.666Z,53.90
2019-01-18T08:06:53.017Z,43.20
2019-01-18T08:09:20.232Z,50.70
2019-01-18T08:11:47.465Z,44.60
2019-01-18T08:14:14.784Z,44.95
2019-01-18T08:16:43.547Z,43.45
2019-01-18T08:19:10.977Z,49.23
2019-01-18T08:21:38.295Z,55.38
2019-01-18T08:24:05.536Z,48.40
2019-01-18T08:26:32.764Z,45.33
2019-01-18T08:29:00.095Z,50.60
2019-01-18T08:31:29.026Z,44.10
2019-01-18T08:33:56.660Z,50.00
2019-01-18T08:36:24.062Z,39.30
2019-01-18T08:38:51.385Z,45.85
2019-01-18T08:41:18.608Z,46.65
2019-01-18T08:43:45.861Z,46.13
2019-01-18T08:46:14.352Z,45.15
2019-01-18T08:48:41.700Z,43.63
2019-01-18T08:51:09.004Z,43.23
2019-01-18T08:53:36.240Z,45.12
2019-01-18T08:56:05.504Z,37.95
2019-01-18T08:58:32.820Z,39.83
2019-01-18T09:01:00.136Z,39.38
2019-01-18T09:03:27.544Z,44.05
2019-01-18T09:05:55.003Z,54.38
2019-01-18T09:08:22.314Z,42.13
2019-01-18T09:10:49.508Z,42.43
2019-01-18T09:13:16.863Z,37.25
2019-01-18T09:15:44.178Z,37.05
2019-01-18T09:18:11.396Z,40.12
2019-01-18T09:20:38.713Z,34.45
2019-01-18T09:23:06.111Z,32.85
2019-01-18T09:25:35.236Z,31.83
2019-01-18T09:28:02.470Z,25.00
2019-01-18T09:30:32.236Z,28.13
2019-01-18T09:32:59.840Z,26.97
2019-01-18T09:35:27.093Z,26.47
2019-01-18T09:37:55.772Z,28.50
2019-01-18T09:40:25.202Z,24.90
2019-01-18T09:42:52.392Z,19.43
2019-01-18T09:45:19.708Z,19.73
2019-01-18T09:47:46.904Z,25.23
2019-01-18T09:50:19.300Z,24.00
2019-01-18T09:52:46.941Z,22.03
2019-01-18T09:55:14.172Z,21.93
2019-01-18T09:57:41.560Z,21.70
2019-01-18T10:00:13.644Z,22.90
2019-01-18T10:02:40.920Z,24.63
2019-01-18T10:05:08.858Z,22.60
2019-01-18T10:07:36.100Z,22.93
2019-01-18T10:10:04.964Z,21.93
2019-01-18T10:12:32.318Z,21.80
2019-01-18T10:14:59.659Z,19.27
2019-01-18T10:17:29.512Z,21.57
2019-01-18T10:19:56.813Z,19.93
2019-01-18T10:22:24.144Z,19.37
2019-01-18T10:24:51.496Z,22.77
2019-01-18T10:27:23.868Z,18.57
2019-01-18T10:29:47.970Z,19.87
2019-01-18T10:32:15.324Z,17.63
2019-01-18T10:34:42.622Z,24.13
2019-01-18T10:37:09.942Z,20.43
2019-01-18T10:39:37.248Z,19.93
2019-01-18T10:42:04.580Z,17.37
2019-01-18T10:44:31.891Z,18.73
2019-01-18T10:46:59.156Z,20.73
2019-01-18T10:49:26.563Z,17.03
2019-01-18T10:51:53.972Z,20.00
2019-01-18T10:54:21.331Z,16.30
2019-01-18T10:56:48.529Z,18.07
2019-01-18T10:59:15.872Z,16.23
2019-01-18T11:01:43.068Z,17.47
2019-01-18T11:04:11.157Z,16.57
2019-01-18T11:06:38.555Z,20.97
2019-01-18T11:09:08.443Z,20.83
2019-01-18T11:11:35.737Z,19.07
2019-01-18T11:14:03.075Z,14.40
2019-01-18T11:16:33.281Z,15.40
2019-01-18T11:19:00.730Z,17.00
2019-01-18T11:21:28.112Z,17.73
2019-01-18T11:23:55.439Z,18.17
2019-01-18T11:26:22.797Z,17.57
2019-01-18T11:28:50.136Z,14.03
2019-01-18T11:31:17.448Z,18.57
2019-01-18T11:33:44.822Z,18.00
2019-01-18T11:36:12.132Z,18.27
2019-01-18T11:38:39.461Z,20.80
2019-01-18T11:41:06.794Z,18.43
2019-01-18T11:43:34.099Z,21.17
2019-01-18T11:46:01.426Z,20.47
2019-01-18T11:48:28.781Z,21.10
2019-01-18T11:50:56.137Z,21.03
2019-01-18T11:53:23.591Z,24.33
2019-01-18T11:55:50.959Z,22.77
2019-01-18T11:58:18.277Z,18.30
2019-01-18T12:00:45.621Z,19.53
2019-01-18T12:03:12.941Z,16.53
2019-01-18T12:05:40.241Z,17.63
2019-01-18T12:08:07.651Z,21.90
2019-01-18T12:10:35.021Z,17.77
2019-01-18T12:13:02.530Z,15.73
2019-01-18T12:15:29.995Z,14.77
2019-01-18T12:17:57.391Z,15.03
2019-01-18T12:20:33.031Z,14.63
2019-01-18T12:23:00.487Z,17.90
2019-01-18T12:25:27.787Z,14.77
2019-01-18T12:27:55.311Z,14.60
2019-01-18T12:30:27.998Z,11.93
2019-01-18T12:32:55.317Z,11.03
2019-01-18T12:35:22.623Z,13.77
2019-01-18T12:37:49.945Z,14.50
2019-01-18T12:40:17.273Z,12.13
2019-01-18T12:42:44.591Z,10.93
2019-01-18T12:45:14.565Z,12.83
2019-01-18T12:47:41.808Z,11.57
2019-01-18T12:50:13.611Z,12.57
2019-01-18T12:52:40.938Z,12.77
2019-01-18T12:55:08.257Z,13.40
2019-01-18T12:57:35.580Z,17.03
2019-01-18T13:00:05.247Z,12.17
2019-01-18T13:02:35.474Z,16.57
2019-01-18T13:05:02.115Z,18.40
2019-01-18T13:07:29.349Z,14.93
2019-01-18T13:09:56.660Z,14.43
2019-01-18T13:12:24.119Z,16.48
2019-01-18T13:14:51.368Z,15.80
2019-01-18T13:17:18.608Z,15.10
2019-01-18T13:19:45.952Z,15.13
2019-01-18T13:22:13.283Z,16.52
2019-01-18T13:24:40.628Z,12.28
2019-01-18T13:27:07.986Z,11.57
2019-01-18T13:29:35.248Z,15.65
2019-01-18T13:32:02.579Z,17.30
2019-01-18T13:34:30.358Z,18.30
2019-01-18T13:36:57.894Z,15.65
2019-01-18T13:39:25.320Z,19.07
2019-01-18T13:41:52.662Z,12.90
2019-01-18T13:44:19.979Z,12.75
2019-01-18T13:46:47.224Z,12.40
2019-01-18T13:49:14.447Z,18.40
2019-01-18T13:51:46.142Z,14.47
2019-01-18T13:54:10.952Z,15.60
2019-01-18T13:56:38.370Z,13.28
2019-01-18T13:59:05.778Z,16.85
2019-01-18T14:01:33.123Z,11.65
2019-01-18T14:04:01.510Z,11.55
2019-01-18T14:06:28.925Z,13.13
2019-01-18T14:08:56.386Z,15.25
2019-01-18T14:11:23.802Z,21.15
2019-01-18T14:13:51.007Z,17.65
2019-01-18T14:16:18.289Z,15.43
2019-01-18T14:18:45.504Z,13.45
2019-01-18T14:21:13.032Z,12.73
2019-01-18T14:23:40.425Z,15.60
2019-01-18T14:26:07.948Z,17.90
2019-01-18T14:28:35.272Z,14.40
2019-01-18T14:31:02.520Z,20.45
2019-01-18T14:33:29.824Z,18.27
2019-01-18T14:35:57.144Z,15.40
2019-01-18T14:38:25.232Z,15.72
2019-01-18T14:40:52.590Z,14.23
2019-01-18T14:43:22.396Z,16.50
2019-01-18T14:45:49.718Z,17.23
2019-01-18T14:48:17.034Z,17.12
2019-01-18T14:50:43.970Z,20.77
2019-01-18T14:53:11.382Z,17.25
2019-01-18T14:55:38.710Z,17.52
2019-01-18T14:58:08.584Z,16.48
2019-01-18T15:00:38.260Z,15.48
2019-01-18T15:03:05.582Z,16.48
2019-01-18T15:05:32.923Z,17.52
2019-01-18T15:08:00.293Z,16.32
2019-01-18T15:10:27.619Z,21.40
2019-01-18T15:12:57.796Z,19.35
2019-01-18T15:15:25.111Z,19.20
2019-01-18T15:17:52.422Z,20.72
2019-01-18T15:20:21.925Z,16.32
2019-01-18T15:22:49.381Z,20.97
2019-01-18T15:25:16.710Z,15.95
2019-01-18T15:27:44.142Z,18.82
2019-01-18T15:30:16.717Z,17.80
2019-01-18T15:32:44.073Z,17.20
2019-01-18T15:35:13.569Z,20.32
2019-01-18T15:37:40.998Z,22.98
2019-01-18T15:40:10.372Z,24.32
2019-01-18T15:42:37.719Z,28.02
2019-01-18T15:45:05.597Z,25.43
2019-01-18T15:47:32.987Z,25.97
2019-01-18T15:50:00.365Z,26.87
2019-01-18T15:52:27.647Z,30.20
2019-01-18T15:54:55.003Z,25.12
2019-01-18T15:57:22.242Z,28.50
2019-01-18T15:59:49.453Z,30.82
2019-01-18T16:02:16.783Z,31.10
2019-01-18T16:04:44.125Z,26.73
2019-01-18T16:07:11.571Z,27.52
2019-01-18T16:09:38.933Z,27.22
2019-01-18T16:12:06.219Z,28.00
2019-01-18T16:14:33.456Z,30.02
2019-01-18T16:17:14.037Z,25.12
2019-01-18T16:19:41.373Z,26.15
2019-01-18T16:22:08.714Z,27.75
2019-01-18T16:24:36.065Z,25.92
2019-01-18T16:27:03.505Z,25.40
2019-01-18T16:29:30.897Z,31.33
2019-01-18T16:31:58.191Z,26.48
2019-01-18T16:34:25.588Z,27.60
2019-01-18T16:36:53.029Z,25.17
2019-01-18T16:39:20.441Z,28.87
2019-01-18T16:41:47.812Z,28.40
2019-01-18T16:44:15.165Z,26.50
2019-01-18T16:46:42.481Z,23.12
2019-01-18T16:49:09.746Z,26.42
2019-01-18T16:51:37.137Z,23.55
2019-01-18T16:54:04.523Z,24.65
2019-01-18T16:56:31.737Z,25.43
2019-01-18T16:58:59.087Z,26.52
2019-01-18T17:01:26.422Z,25.50
2019-01-18T17:03:53.873Z,24.67
2019-01-18T17:06:21.245Z,23.32
2019-01-18T17:08:48.461Z,25.05
2019-01-18T17:11:15.725Z,22.00
2019-01-18T17:13:52.681Z,27.02
2019-01-18T17:16:19.921Z,29.48
2019-01-18T17:18:47.742Z,27.77
2019-01-18T17:21:14.984Z,24.02
2019-01-18T17:23:42.165Z,21.25
2019-01-18T17:26:09.523Z,22.67
2019-01-18T17:28:36.897Z,23.67
2019-01-18T17:31:04.217Z,20.43
2019-01-18T17:33:36.710Z,51.45
2019-01-18T17:36:23.481Z,21.00
2019-01-18T17:39:26.297Z,21.65
2019-01-18T17:42:07.821Z,25.95
2019-01-18T17:45:08.201Z,22.10
2019-01-18T17:47:57.405Z,54.77
2019-01-18T17:50:56.190Z,27.22
2019-01-18T17:54:01.163Z,24.18
2019-01-18T17:57:09.187Z,22.13
2019-01-18T18:00:30.563Z,20.32
2019-01-18T18:03:36.633Z,23.75
2019-01-18T18:06:41.513Z,21.35
2019-01-18T18:09:27.594Z,25.10
2019-01-18T18:12:28.917Z,20.08
2019-01-18T18:15:20.030Z,22.52
2019-01-18T18:18:30.921Z,21.73
2019-01-18T18:21:31.004Z,26.73
2019-01-18T18:24:38.189Z,22.17
2019-01-18T18:27:52.416Z,22.87
2019-01-18T18:31:15.821Z,25.55
2019-01-18T18:34:21.157Z,25.88
2019-01-18T18:37:14.202Z,25.30
2019-01-18T18:40:14.584Z,22.60
2019-01-18T18:43:11.154Z,24.60
2019-01-18T18:46:06.541Z,23.45
2019-01-18T18:49:10.204Z,24.75
2019-01-18T18:52:13.500Z,25.17
2019-01-18T18:55:37.268Z,23.60
2019-01-18T18:58:26.288Z,24.25
2019-01-18T19:01:31.282Z,25.17
2019-01-18T19:04:24.156Z,24.65
2019-01-18T19:07:46.377Z,21.75
2019-01-18T19:10:45.773Z,27.27
2019-01-18T19:13:49.621Z,26.65
2019-01-18T19:16:55.711Z,26.50
2019-01-18T19:19:57.269Z,26.40
2019-01-18T19:23:09.503Z,24.57
2019-01-18T19:26:08.771Z,22.15
2019-01-18T19:29:29.983Z,22.42
2019-01-18T19:32:41.965Z,24.12
2019-01-18T19:35:47.369Z,23.70
2019-01-18T19:38:39.647Z,24.90
2019-01-18T19:41:37.956Z,29.70
2019-01-18T19:44:27.053Z,28.42
2019-01-18T19:47:36.818Z,27.27
2019-01-18T19:50:52.208Z,28.02
2019-01-18T19:53:47.962Z,23.92
2019-01-18T19:56:42.815Z,26.87
2019-01-18T19:59:45.352Z,27.95
2019-01-18T20:02:40.342Z,26.05
2019-01-18T20:05:51.644Z,30.45
2019-01-18T20:08:54.165Z,26.70
2019-01-18T20:12:09.201Z,25.17
2019-01-18T20:15:27.214Z,28.10
2019-01-18T20:18:39.203Z,30.72
2019-01-18T20:21:33.400Z,30.95
2019-01-18T20:24:53.125Z,26.10
2019-01-18T20:27:40.664Z,26.97
2019-01-18T20:30:58.603Z,25.92
2019-01-18T20:34:00.702Z,24.57
2019-01-18T20:36:51.226Z,31.00
2019-01-18T20:39:56.181Z,29.00
2019-01-18T20:42:50.764Z,28.90
2019-01-18T20:45:53.934Z,27.98
2019-01-18T20:48:48.344Z,23.98
2019-01-18T20:51:47.046Z,25.82
2019-01-18T20:54:35.369Z,33.95
2019-01-18T20:57:12.086Z,26.17
2019-01-18T21:00:05.688Z,30.25
2019-01-18T21:03:05.642Z,26.93
2019-01-18T21:06:10.826Z,26.37
2019-01-18T21:09:11.842Z,28.87
2019-01-18T21:12:02.370Z,30.17
2019-01-18T21:15:11.546Z,26.05
2019-01-18T21:18:16.740Z,29.02
2019-01-18T21:21:01.820Z,32.65
2019-01-18T21:24:20.990Z,31.00
2019-01-18T21:27:38.061Z,30.20
2019-01-18T21:30:47.356Z,32.05
2019-01-18T21:33:41.592Z,32.10
2019-01-18T21:36:17.910Z,24.90
2019-01-18T21:39:28.745Z,28.55
2019-01-18T21:42:33.602Z,31.82
2019-01-18T21:45:51.608Z,28.45
2019-01-18T21:49:02.328Z,29.63
2019-01-18T21:51:40.864Z,25.43
2019-01-18T21:54:56.684Z,27.32
2019-01-18T21:58:18.430Z,26.25
2019-01-18T22:01:28.851Z,32.00
2019-01-18T22:04:43.884Z,31.68
2019-01-18T22:07:45.035Z,28.62
2019-01-18T22:10:31.514Z,28.77
2019-01-18T22:13:14.325Z,34.18
2019-01-18T22:16:01.110Z,27.80
2019-01-18T22:19:01.360Z,29.35
2019-01-18T22:22:00.140Z,32.83
2019-01-18T22:25:01.548Z,33.73
2019-01-18T22:28:06.632Z,26.85
2019-01-18T22:31:18.904Z,31.37
2019-01-18T22:33:51.524Z,29.98
2019-01-18T22:37:21.908Z,32.00
2019-01-18T22:40:37.115Z,30.68
2019-01-18T22:43:46.126Z,30.90
2019-01-18T22:46:57.079Z,31.95
2019-01-18T22:50:12.320Z,31.05
2019-01-18T22:52:59.102Z,34.15
2019-01-18T22:55:56.952Z,31.85
2019-01-18T22:59:00.385Z,34.10
2019-01-18T23:01:54.161Z,32.98
2019-01-18T23:04:55.702Z,34.55
2019-01-18T23:08:20.176Z,35.80
2019-01-18T23:11:02.036Z,33.55
2019-01-18T23:14:09.654Z,31.80
2019-01-18T23:17:04.510Z,31.90
2019-01-18T23:19:48.661Z,32.60
2019-01-18T23:23:12.972Z,29.75
2019-01-18T23:26:23.524Z,29.27
2019-01-18T23:29:03.063Z,32.80
2019-01-18T23:32:09.213Z,29.20
2019-01-18T23:34:51.752Z,33.67
2019-01-18T23:37:36.401Z,29.95
2019-01-18T23:40:38.764Z,29.77
2019-01-18T23:43:24.912Z,32.70
2019-01-18T23:46:38.703Z,33.28
2019-01-18T23:49:37.456Z,30.30
2019-01-18T23:52:23.237Z,29.82
2019-01-18T23:55:34.076Z,32.48
2019-01-18T23:58:46.069Z,26.68
